Time;durP1;ratioP1;P1;durP2;ratioP2;P2;SDS_P1;SDS_P2;PMS_P1;PMS_P2;Temp;Humidity;BMP_temperature;BMP_pressure;BME280_temperature;BME280_humidity;BME280_pressure;Samples;Min_cycle;Max_cycle;Signal;HPM_P1;HPM_P2
2022/05/08 00:01:30;;;;;;;22.10;13.90;;;;;;;9.92;58.52;100707.24;130281;1267;108763;-73
2022/05/08 00:04:35;;;;;;;23.70;13.60;;;;;;;9.86;58.59;100704.07;130278;1267;108790;-71
2022/05/08 00:07:41;;;;;;;23.40;14.00;;;;;;;9.81;58.65;100702.69;130296;1267;108707;-73
2022/05/08 00:10:46;;;;;;;23.60;13.20;;;;;;;9.79;58.92;100700.63;130174;1267;108825;-72
2022/05/08 00:13:52;;;;;;;21.10;13.20;;;;;;;9.74;58.78;100700.27;130225;1267;108987;-71
2022/05/08 00:16:58;;;;;;;20.10;12.70;;;;;;;9.72;58.90;100699.94;130308;1267;108749;-71
2022/05/08 00:20:05;;;;;;;25.30;14.80;;;;;;;9.68;59.43;100701.89;130242;1267;108833;-74
2022/05/08 00:23:10;;;;;;;21.70;13.50;;;;;;;9.42;60.71;100712.02;130378;1267;108863;-73
2022/05/08 00:26:18;;;;;;;21.90;12.80;;;;;;;9.31;60.33;100697.20;130374;1267;108774;-73
2022/05/08 00:29:24;;;;;;;20.00;11.20;;;;;;;9.21;61.56;100711.70;130292;1266;108729;-73
2022/05/08 00:32:29;;;;;;;17.70;11.80;;;;;;;9.18;60.70;100701.33;130314;1267;108981;-73
2022/05/08 00:35:35;;;;;;;22.50;12.40;;;;;;;9.30;60.66;100696.92;130280;1267;108811;-75
2022/05/08 00:38:40;;;;;;;19.00;11.80;;;;;;;9.26;61.93;100700.98;130261;1267;108752;-73
2022/05/08 00:41:45;;;;;;;19.70;12.70;;;;;;;9.21;61.10;100690.21;130252;1267;108873;-73
2022/05/08 00:44:51;;;;;;;20.80;13.10;;;;;;;9.23;60.79;100688.92;130267;1267;109846;-73
2022/05/08 00:47:56;;;;;;;21.70;12.50;;;;;;;9.25;60.86;100691.35;130337;1267;108937;-73
2022/05/08 00:51:04;;;;;;;22.20;12.40;;;;;;;9.25;60.81;100687.59;130343;1267;108716;-74
2022/05/08 00:54:10;;;;;;;24.30;12.80;;;;;;;9.27;60.75;100689.05;130322;1267;108704;-74
2022/05/08 00:57:16;;;;;;;19.40;12.10;;;;;;;9.28;60.85;100693.17;130328;1267;108911;-73
2022/05/08 01:00:22;;;;;;;18.00;11.50;;;;;;;9.31;60.75;100687.21;130269;1267;108696;-73
2022/05/08 01:03:27;;;;;;;20.00;11.90;;;;;;;9.30;60.82;100694.61;130255;1266;108724;-73
2022/05/08 01:06:33;;;;;;;18.80;11.80;;;;;;;9.27;60.91;100692.20;130317;1267;108573;-73
2022/05/08 01:09:39;;;;;;;20.90;12.00;;;;;;;9.24;60.95;100691.20;130297;1267;108810;-74
2022/05/08 01:12:45;;;;;;;17.70;11.20;;;;;;;9.19;60.95;100696.45;130313;1267;108669;-71
2022/05/08 01:15:51;;;;;;;19.30;9.90;;;;;;;9.19;61.14;100695.00;130296;1267;108815;-73
2022/05/08 01:18:56;;;;;;;17.80;11.40;;;;;;;9.20;61.14;100689.23;130271;1267;108752;-73
2022/05/08 01:22:02;;;;;;;21.00;12.00;;;;;;;9.18;61.10;100684.46;130273;1267;108620;-73
2022/05/08 01:25:09;;;;;;;17.90;11.10;;;;;;;9.19;61.21;100683.65;130251;1267;108587;-73
2022/05/08 01:28:15;;;;;;;18.30;11.20;;;;;;;9.18;61.69;100688.34;130290;1267;108553;-73
2022/05/08 01:31:20;;;;;;;17.30;11.30;;;;;;;9.01;61.64;100693.02;130279;1267;108664;-73
2022/05/08 01:34:26;;;;;;;17.70;10.50;;;;;;;8.98;61.62;100693.83;130144;1268;108825;-72
2022/05/08 01:37:31;;;;;;;18.80;11.90;;;;;;;9.02;61.66;100687.98;130295;1267;108953;-73
2022/05/08 01:40:36;;;;;;;19.30;10.70;;;;;;;9.02;61.75;100693.64;130294;1267;107219;-73
2022/05/08 01:43:42;;;;;;;17.60;11.00;;;;;;;9.02;61.76;100692.73;130367;1266;106823;-73
2022/05/08 01:46:47;;;;;;;18.00;10.90;;;;;;;9.06;61.63;100694.59;130262;1267;107652;-74
2022/05/08 01:49:53;;;;;;;19.30;11.20;;;;;;;9.10;61.70;100690.13;130334;1267;108926;-74
2022/05/08 01:52:59;;;;;;;18.90;10.90;;;;;;;9.10;61.55;100693.01;130255;1267;108673;-74
2022/05/08 01:56:07;;;;;;;18.90;10.60;;;;;;;9.02;61.49;100686.87;130293;1267;108465;-73
2022/05/08 01:59:13;;;;;;;18.60;9.50;;;;;;;8.98;61.64;100687.38;130285;1267;108706;-74
2022/05/08 02:02:19;;;;;;;15.20;8.30;;;;;;;8.97;61.73;100686.65;130292;1267;108818;-73
2022/05/08 02:05:25;;;;;;;17.30;9.30;;;;;;;8.98;61.79;100689.17;130282;1267;107883;-73
2022/05/08 02:08:30;;;;;;;16.10;9.60;;;;;;;9.00;61.69;100685.48;130289;1267;108938;-73
2022/05/08 02:11:36;;;;;;;15.40;9.60;;;;;;;9.08;61.86;100684.48;130334;1267;108754;-73
2022/05/08 02:14:43;;;;;;;17.00;10.30;;;;;;;9.14;61.79;100689.77;130293;1267;108946;-73
2022/05/08 02:17:48;;;;;;;15.00;9.20;;;;;;;9.15;61.93;100687.38;130368;1267;108654;-74
2022/05/08 02:20:54;;;;;;;13.40;9.20;;;;;;;9.19;61.92;100690.45;130301;1267;109005;-73
2022/05/08 02:23:59;;;;;;;15.90;9.60;;;;;;;9.22;62.16;100689.45;130334;1267;109012;-73
2022/05/08 02:27:05;;;;;;;14.00;9.20;;;;;;;9.27;62.12;100683.34;130300;1266;108820;-73
2022/05/08 02:30:13;;;;;;;14.40;9.40;;;;;;;9.30;62.25;100683.27;130304;1267;108765;-73
2022/05/08 02:33:18;;;;;;;15.40;9.00;;;;;;;9.30;62.28;100683.04;130284;1267;107034;-74
2022/05/08 02:36:24;;;;;;;14.80;9.40;;;;;;;9.32;62.35;100684.81;130324;1267;108215;-73
2022/05/08 02:39:29;;;;;;;14.10;9.00;;;;;;;9.32;62.34;100684.45;130337;1266;108705;-73
2022/05/08 02:42:35;;;;;;;15.40;9.30;;;;;;;9.30;62.52;100688.23;130284;1267;109141;-73
2022/05/08 02:45:40;;;;;;;13.10;8.10;;;;;;;9.29;62.54;100691.30;130322;1267;108845;-73
2022/05/08 02:48:46;;;;;;;12.60;7.70;;;;;;;9.32;62.69;100688.40;130287;1267;108670;-71
2022/05/08 02:51:51;;;;;;;12.80;8.30;;;;;;;9.33;62.71;100688.46;130296;1267;107042;-73
2022/05/08 02:54:56;;;;;;;13.80;8.50;;;;;;;9.39;62.66;100692.20;130309;1267;108751;-73
2022/05/08 03:01:39;;;;;;;13.00;9.00;;;;;;;9.43;63.09;100698.80;130026;1271;108763;-73
2022/05/08 03:04:47;;;;;;;14.70;9.30;;;;;;;9.47;63.30;100707.03;130290;1267;108946;-73
2022/05/08 03:07:52;;;;;;;14.10;9.10;;;;;;;9.50;63.20;100703.89;130313;1267;106685;-74
2022/05/08 03:14:23;;;;;;;13.90;9.20;;;;;;;9.60;63.24;100700.66;130377;1267;108738;-73
2022/05/08 03:17:29;;;;;;;14.60;8.80;;;;;;;9.65;63.17;100702.36;130289;1267;107679;-72
2022/05/08 03:20:34;;;;;;;14.50;9.20;;;;;;;9.67;63.36;100703.13;130291;1267;108795;-73
2022/05/08 03:23:40;;;;;;;12.90;8.20;;;;;;;9.69;63.39;100705.74;130270;1267;108843;-73
2022/05/08 03:26:45;;;;;;;14.50;7.50;;;;;;;9.73;63.72;100708.05;130273;1267;108694;-73
2022/05/08 03:29:51;;;;;;;13.90;8.30;;;;;;;9.77;63.90;100706.12;130350;1267;108731;-74
2022/05/08 03:32:57;;;;;;;13.50;8.40;;;;;;;9.85;63.80;100706.42;130304;1267;108669;-72
2022/05/08 03:36:03;;;;;;;12.50;8.80;;;;;;;9.95;63.97;100706.44;130311;1267;109149;-72
2022/05/08 03:39:09;;;;;;;16.30;9.40;;;;;;;10.01;64.02;100707.02;130296;1267;108664;-73
2022/05/08 03:42:14;;;;;;;11.70;8.50;;;;;;;10.09;63.95;100708.96;130345;1267;108916;-73
2022/05/08 03:45:20;;;;;;;13.70;9.10;;;;;;;10.15;64.12;100713.40;130362;1266;107588;-73
2022/05/08 03:48:25;;;;;;;14.10;9.30;;;;;;;10.14;64.20;100716.98;129994;1267;382759;-72
2022/05/08 03:51:30;;;;;;;12.70;8.80;;;;;;;10.17;64.27;100717.92;130280;1267;108675;-74
2022/05/08 03:54:36;;;;;;;15.00;9.00;;;;;;;10.21;64.46;100719.94;130280;1267;108111;-73
2022/05/08 03:57:41;;;;;;;11.80;7.50;;;;;;;10.24;64.57;100726.09;130277;1267;108704;-73
2022/05/08 04:00:47;;;;;;;11.80;7.40;;;;;;;10.27;64.55;100724.75;130304;1267;108566;-73
2022/05/08 04:03:52;;;;;;;12.00;8.30;;;;;;;10.34;64.67;100723.20;130399;1267;108670;-73
2022/05/08 04:06:58;;;;;;;13.40;8.50;;;;;;;10.42;64.57;100727.45;130274;1267;107738;-74
2022/05/08 04:10:04;;;;;;;15.40;9.10;;;;;;;10.52;64.72;100735.12;130275;1267;108606;-74
2022/05/08 04:13:10;;;;;;;13.70;9.20;;;;;;;10.58;65.03;100738.98;130301;1267;108838;-72
2022/05/08 04:16:19;;;;;;;12.40;9.40;;;;;;;10.59;65.73;100748.16;130322;1267;108775;-72
2022/05/08 04:19:24;;;;;;;14.50;9.20;;;;;;;10.54;65.53;100746.35;130338;1267;109000;-73
2022/05/08 04:25:54;;;;;;;13.30;7.70;;;;;;;10.67;65.39;100744.20;130285;1267;108237;-73
2022/05/08 04:29:01;;;;;;;13.00;7.50;;;;;;;10.77;65.52;100743.24;130266;1267;108837;-74
2022/05/08 04:32:07;;;;;;;9.30;7.60;;;;;;;10.88;65.52;100742.25;130381;1267;108818;-74
2022/05/08 04:35:13;;;;;;;11.80;8.50;;;;;;;11.01;65.14;100741.20;130329;1266;108679;-73
2022/05/08 04:38:20;;;;;;;12.40;8.70;;;;;;;11.17;65.58;100748.61;130286;1267;108687;-73
2022/05/08 04:41:25;;;;;;;16.30;9.30;;;;;;;11.26;65.94;100745.80;130401;1267;108703;-72
2022/05/08 04:44:31;;;;;;;13.70;9.10;;;;;;;11.33;65.67;100751.74;130398;1267;108714;-72
2022/05/08 04:47:36;;;;;;;15.40;9.00;;;;;;;11.45;65.83;100753.88;130355;1266;108854;-72
2022/05/08 04:50:42;;;;;;;14.20;10.00;;;;;;;11.56;66.13;100754.41;130337;1267;108926;-72
2022/05/08 04:53:47;;;;;;;16.50;10.90;;;;;;;11.64;66.29;100757.36;130297;1266;109077;-73
2022/05/08 04:56:53;;;;;;;12.90;8.60;;;;;;;11.75;66.10;100757.16;130327;1267;108644;-73
2022/05/08 04:59:58;;;;;;;14.30;9.50;;;;;;;11.92;66.04;100760.73;130311;1267;108273;-73
2022/05/08 05:03:04;;;;;;;13.90;9.10;;;;;;;12.10;66.09;100761.48;130332;1267;108727;-74
2022/05/08 05:06:10;;;;;;;13.20;9.40;;;;;;;12.31;66.21;100764.44;130358;1267;108656;-73
2022/05/08 05:09:15;;;;;;;14.40;9.70;;;;;;;12.50;65.98;100757.49;130318;1267;109196;-73
2022/05/08 05:12:21;;;;;;;15.40;11.00;;;;;;;12.66;66.02;100760.80;130232;1267;108843;-72
2022/05/08 05:15:27;;;;;;;28.70;21.40;;;;;;;12.83;66.33;100761.40;130284;1267;108882;-72
2022/05/08 05:18:33;;;;;;;19.80;13.90;;;;;;;12.95;66.57;100762.83;130297;1266;108625;-72
2022/05/08 05:21:38;;;;;;;16.90;12.60;;;;;;;13.01;66.49;100766.35;130353;1267;108644;-72
2022/05/08 05:24:43;;;;;;;27.80;21.50;;;;;;;13.10;66.45;100770.44;130343;1267;108986;-72
2022/05/08 05:27:49;;;;;;;23.70;19.20;;;;;;;13.17;66.74;100778.84;130304;1267;108939;-72
2022/05/08 05:30:54;;;;;;;22.80;19.30;;;;;;;13.22;67.17;100783.50;130342;1267;108688;-72
2022/05/08 05:34:00;;;;;;;20.80;15.80;;;;;;;13.28;67.54;100790.23;130183;1268;108928;-72
2022/05/08 05:37:06;;;;;;;16.70;12.30;;;;;;;13.35;67.84;100794.54;130191;1268;108944;-72
2022/05/08 05:40:12;;;;;;;15.60;12.70;;;;;;;13.45;68.21;100791.29;130188;1268;108769;-72
2022/05/08 05:43:17;;;;;;;17.40;12.50;;;;;;;13.54;67.49;100791.84;130146;1268;108875;-72
2022/05/08 05:49:46;;;;;;;16.50;13.40;;;;;;;13.79;67.67;100801.27;130243;1268;108737;-72
2022/05/08 05:52:52;;;;;;;22.90;17.40;;;;;;;13.86;67.73;100802.83;130173;1268;108650;-72
2022/05/08 05:56:00;;;;;;;17.20;13.30;;;;;;;13.89;68.46;100801.55;130176;1268;108763;-72
2022/05/08 05:59:06;;;;;;;16.90;13.20;;;;;;;13.92;68.49;100797.23;130256;1268;108760;-73
2022/05/08 06:02:11;;;;;;;17.10;12.70;;;;;;;13.95;68.43;100802.19;130198;1268;108706;-73
2022/05/08 06:05:16;;;;;;;15.40;13.00;;;;;;;14.02;68.86;100807.74;130181;1268;108799;-73
2022/05/08 06:08:23;;;;;;;16.10;13.30;;;;;;;14.13;69.12;100810.87;130170;1268;108836;-72
2022/05/08 06:11:29;;;;;;;20.70;17.30;;;;;;;14.23;68.78;100811.96;130208;1268;108814;-72
2022/05/08 06:14:34;;;;;;;16.70;12.40;;;;;;;14.34;68.62;100817.84;130143;1268;108664;-72
2022/05/08 06:17:40;;;;;;;14.70;11.00;;;;;;;14.45;68.21;100809.41;130153;1267;110011;-72
2022/05/08 06:20:46;;;;;;;16.70;11.50;;;;;;;14.66;67.99;100810.65;130143;1268;110049;-72
2022/05/08 06:23:52;;;;;;;13.40;10.90;;;;;;;14.82;68.24;100809.66;130212;1268;109055;-72
2022/05/08 06:26:57;;;;;;;14.20;11.70;;;;;;;14.88;67.67;100810.23;130193;1268;109032;-73
2022/05/08 06:30:03;;;;;;;14.00;10.80;;;;;;;14.95;67.65;100809.42;130183;1268;109025;-73
2022/05/08 06:33:08;;;;;;;13.30;10.90;;;;;;;15.01;68.05;100811.64;130293;1267;108724;-72
2022/05/08 06:36:14;;;;;;;13.50;10.70;;;;;;;15.04;68.06;100811.64;130369;1267;108129;-73
2022/05/08 06:39:20;;;;;;;13.70;10.90;;;;;;;15.02;67.86;100810.27;130401;1267;108641;-72
2022/05/08 06:42:25;;;;;;;13.10;10.70;;;;;;;15.06;67.73;100815.08;130322;1266;108934;-72
2022/05/08 06:45:33;;;;;;;12.40;9.50;;;;;;;15.15;68.17;100820.50;130314;1267;108843;-74
2022/05/08 06:48:43;;;;;;;14.30;10.20;;;;;;;15.21;68.23;100816.83;130361;1267;108920;-73
2022/05/08 06:51:48;;;;;;;13.10;9.80;;;;;;;15.30;67.61;100812.93;130404;1267;108749;-75
2022/05/08 06:54:54;;;;;;;13.30;10.70;;;;;;;15.50;67.34;100814.54;130484;1266;107315;-72
2022/05/08 06:57:59;;;;;;;13.80;10.90;;;;;;;15.70;67.10;100816.96;130432;1267;107683;-74
2022/05/08 07:04:28;;;;;;;14.40;9.90;;;;;;;15.83;66.82;100821.80;130444;1267;108801;-73
2022/05/08 07:07:33;;;;;;;11.70;9.30;;;;;;;15.87;66.73;100824.89;130421;1266;108349;-73
2022/05/08 07:10:39;;;;;;;12.70;9.70;;;;;;;15.93;66.77;100822.80;130432;1267;107180;-72
2022/05/08 07:13:44;;;;;;;11.80;9.90;;;;;;;16.01;66.62;100822.61;130351;1267;108661;-72
2022/05/08 07:16:50;;;;;;;10.80;9.40;;;;;;;16.02;66.50;100824.46;130347;1267;108748;-72
2022/05/08 07:19:55;;;;;;;10.30;8.70;;;;;;;16.07;66.34;100825.67;130421;1267;108850;-72
2022/05/08 07:23:01;;;;;;;8.50;7.40;;;;;;;16.12;65.98;100829.06;130445;1267;108680;-72
2022/05/08 07:26:06;;;;;;;10.10;7.30;;;;;;;16.26;65.79;100828.88;130295;1267;108958;-73
2022/05/08 07:29:12;;;;;;;12.40;10.20;;;;;;;16.48;65.75;100838.80;130320;1267;108841;-73
2022/05/08 07:32:17;;;;;;;11.30;7.90;;;;;;;16.62;65.51;100839.70;130269;1267;108613;-73
2022/05/08 07:38:47;;;;;;;11.50;7.70;;;;;;;17.02;64.78;100841.99;130278;1267;108744;-73
2022/05/08 07:41:53;;;;;;;10.30;7.30;;;;;;;17.02;63.42;100843.06;130383;1267;108697;-74
2022/05/08 07:44:58;;;;;;;8.30;6.80;;;;;;;17.07;63.54;100844.39;130440;1267;108859;-74
2022/05/08 07:48:03;;;;;;;7.80;6.80;;;;;;;17.17;63.43;100846.79;130401;1267;108872;-73
2022/05/08 07:51:09;;;;;;;7.20;6.40;;;;;;;17.34;62.43;100846.11;130412;1267;108508;-74
2022/05/08 07:54:14;;;;;;;7.80;6.00;;;;;;;17.38;61.60;100847.20;130338;1267;108962;-73
2022/05/08 07:57:20;;;;;;;7.70;5.50;;;;;;;17.41;60.87;100847.65;130290;1267;108685;-74
2022/05/08 08:00:25;;;;;;;9.20;5.80;;;;;;;17.50;61.52;100847.52;130348;1267;107638;-73
2022/05/08 08:03:32;;;;;;;5.50;5.00;;;;;;;17.65;61.06;100851.09;130349;1267;108954;-74
2022/05/08 08:06:38;;;;;;;6.80;5.30;;;;;;;17.81;60.13;100850.45;130392;1266;109036;-74
2022/05/08 08:09:44;;;;;;;7.00;5.10;;;;;;;17.90;59.62;100848.67;130400;1267;108686;-73
2022/05/08 08:12:49;;;;;;;5.80;5.10;;;;;;;18.03;60.50;100851.05;130366;1267;108698;-72
2022/05/08 08:15:55;;;;;;;6.40;4.90;;;;;;;18.17;58.43;100846.80;130348;1267;108661;-73
2022/05/08 08:19:00;;;;;;;5.00;4.40;;;;;;;18.09;59.05;100848.89;130301;1267;108701;-73
2022/05/08 08:22:06;;;;;;;5.50;4.40;;;;;;;18.17;58.93;100847.58;130336;1267;108858;-73
2022/05/08 08:25:11;;;;;;;5.50;4.00;;;;;;;18.21;58.36;100848.43;130283;1267;108774;-72
2022/05/08 08:28:17;;;;;;;4.50;3.80;;;;;;;18.21;58.20;100853.33;130329;1266;109468;-73
2022/05/08 08:31:23;;;;;;;5.00;3.90;;;;;;;18.25;59.36;100856.32;130416;1267;108798;-73
2022/05/08 08:34:28;;;;;;;8.40;4.00;;;;;;;18.33;58.80;100853.48;130348;1267;109144;-73
2022/05/08 08:37:34;;;;;;;6.30;4.80;;;;;;;18.44;58.03;100856.05;130365;1266;108708;-72
2022/05/08 08:40:42;;;;;;;4.60;3.60;;;;;;;18.42;56.99;100862.47;130348;1267;109116;-73
2022/05/08 08:50:40;;;;;;;5.60;3.90;;;;;;;18.32;57.69;100861.36;130372;1267;108780;-72
2022/05/08 08:53:46;;;;;;;3.30;2.90;;;;;;;18.41;58.16;100859.48;130325;1267;108879;-73
2022/05/08 08:56:52;;;;;;;4.80;3.30;;;;;;;18.55;57.56;100865.37;130414;1267;108847;-73
2022/05/08 08:59:58;;;;;;;4.00;3.60;;;;;;;18.57;56.62;100862.73;130310;1267;107712;-73
2022/05/08 09:03:03;;;;;;;4.40;3.30;;;;;;;18.48;56.03;100868.36;130320;1267;108797;-73
2022/05/08 09:06:09;;;;;;;6.40;4.00;;;;;;;18.34;55.95;100866.70;130342;1267;108997;-73
2022/05/08 09:09:26;;;;;;;4.60;3.70;;;;;;;18.16;56.17;100869.84;130393;1267;108737;-73
2022/05/08 09:12:31;;;;;;;5.00;3.80;;;;;;;17.96;55.49;100872.48;130360;1267;108836;-72
2022/05/08 09:15:38;;;;;;;3.70;3.10;;;;;;;17.74;54.94;100867.32;130389;1267;109424;-73
2022/05/08 09:18:48;;;;;;;3.70;2.70;;;;;;;17.57;55.55;100870.60;130442;1267;108821;-73
2022/05/08 09:22:00;;;;;;;3.70;3.20;;;;;;;17.47;55.36;100866.24;130344;1267;108753;-73
2022/05/08 09:25:06;;;;;;;3.60;2.80;;;;;;;17.47;55.78;100866.41;130166;1268;108730;-73
2022/05/08 09:28:12;;;;;;;5.00;3.00;;;;;;;17.55;55.96;100869.20;130441;1267;108849;-74
2022/05/08 09:31:18;;;;;;;3.50;2.20;;;;;;;17.66;55.43;100873.27;130431;1267;108719;-74
2022/05/08 09:34:24;;;;;;;3.80;2.40;;;;;;;17.83;55.19;100874.89;130405;1267;108490;-74
2022/05/08 09:37:29;;;;;;;2.50;2.20;;;;;;;18.06;54.89;100874.73;130385;1267;107530;-74
2022/05/08 09:40:35;;;;;;;193.80;146.20;;;;;;;18.27;53.99;100876.14;130381;1267;108643;-75
2022/05/08 09:43:41;;;;;;;33.20;23.90;;;;;;;18.42;53.79;100877.73;130332;1267;108684;-74
2022/05/08 09:46:49;;;;;;;7.80;6.40;;;;;;;18.58;53.18;100877.27;130379;1267;108616;-74
2022/05/08 09:49:54;;;;;;;6.50;4.60;;;;;;;18.66;52.67;100882.37;130406;1267;109646;-74
2022/05/08 09:53:01;;;;;;;6.50;4.70;;;;;;;18.72;53.26;100879.73;130269;1267;108604;-74
2022/05/08 09:56:08;;;;;;;5.30;3.40;;;;;;;18.86;52.73;100880.25;130323;1267;108871;-74
2022/05/08 09:59:14;;;;;;;3.10;2.60;;;;;;;18.89;52.04;100880.61;130319;1267;108730;-74
2022/05/08 10:02:21;;;;;;;4.00;2.90;;;;;;;18.99;52.10;100884.62;130321;1267;108083;-74
2022/05/08 10:05:27;;;;;;;4.40;2.90;;;;;;;19.02;52.07;100887.65;130406;1267;108702;-74
2022/05/08 10:08:37;;;;;;;7.80;7.00;;;;;;;19.06;52.06;100885.59;130323;1267;108693;-74
2022/05/08 10:15:35;;;;;;;5.00;3.90;;;;;;;18.96;51.78;100894.53;130349;1267;108686;-74
2022/05/08 10:18:40;;;;;;;7.80;5.70;;;;;;;18.84;51.78;100892.75;130337;1267;108979;-74
2022/05/08 10:22:06;;;;;;;8.30;6.10;;;;;;;18.77;52.14;100888.20;130328;1267;108842;-74
2022/05/08 10:25:16;;;;;;;4.80;3.80;;;;;;;18.70;52.38;100892.19;130352;1267;108776;-74
2022/05/08 10:28:22;;;;;;;6.60;4.60;;;;;;;18.62;52.07;100892.02;130448;1267;108859;-74
2022/05/08 10:31:45;;;;;;;6.70;5.40;;;;;;;18.54;52.89;100890.72;130438;1267;107691;-74
2022/05/08 10:35:10;;;;;;;7.00;4.40;;;;;;;18.34;52.81;100891.36;130492;1267;109600;-74
2022/05/08 10:38:28;;;;;;;3.80;3.10;;;;;;;18.19;53.12;100889.45;130373;1267;108861;-74
2022/05/08 10:41:46;;;;;;;4.70;3.20;;;;;;;18.24;53.29;100880.04;130390;1266;108933;-74
2022/05/08 10:44:52;;;;;;;4.20;3.30;;;;;;;18.29;53.08;100874.33;130412;1267;109033;-73
2022/05/08 10:48:04;;;;;;;4.90;3.80;;;;;;;18.19;53.06;100867.29;130408;1267;108855;-74
2022/05/08 10:51:09;;;;;;;4.70;3.50;;;;;;;18.11;53.20;100861.29;130357;1267;108690;-74
2022/05/08 10:54:15;;;;;;;5.30;3.70;;;;;;;18.03;53.41;100859.90;130364;1267;108877;-73
2022/05/08 10:57:30;;;;;;;4.90;4.10;;;;;;;18.04;53.69;100860.60;130409;1267;108772;-74
2022/05/08 11:00:36;;;;;;;5.50;3.70;;;;;;;18.08;53.43;100860.35;130441;1267;108687;-73
2022/05/08 11:03:41;;;;;;;5.50;3.60;;;;;;;18.17;53.74;100860.17;130372;1266;108682;-73
2022/05/08 11:06:51;;;;;;;4.70;3.70;;;;;;;18.26;53.63;100862.45;130467;1267;107533;-73
2022/05/08 11:09:57;;;;;;;3.60;3.20;;;;;;;18.28;53.18;100863.05;130331;1267;108761;-73
2022/05/08 11:13:05;;;;;;;3.70;3.30;;;;;;;18.34;53.22;100854.79;130396;1267;108729;-73
2022/05/08 11:16:12;;;;;;;7.00;5.30;;;;;;;18.46;53.12;100851.73;130394;1266;108625;-73
2022/05/08 11:19:17;;;;;;;5.40;4.20;;;;;;;18.52;53.12;100855.81;130436;1266;108388;-72
2022/05/08 11:22:23;;;;;;;3.60;3.20;;;;;;;18.63;53.48;100848.29;130509;1267;108893;-72
2022/05/08 11:25:28;;;;;;;7.40;4.90;;;;;;;18.78;53.01;100846.97;130464;1266;108708;-72
2022/05/08 11:28:35;;;;;;;6.50;5.00;;;;;;;18.86;52.75;100847.36;130469;1267;108748;-72
2022/05/08 11:36:04;;;;;;;5.70;3.90;;;;;;;18.97;52.60;100847.66;130346;1266;108690;-72
2022/05/08 11:38:39;;;;;;;5.40;3.90;;;;;;;19.10;51.86;100847.15;130392;1267;108722;-72
2022/05/08 11:41:49;;;;;;;4.90;3.80;;;;;;;19.13;52.28;100839.71;130377;1266;108949;-72
2022/05/08 11:45:09;;;;;;;6.70;4.50;;;;;;;19.18;51.32;100841.57;130489;1266;108708;-72
2022/05/08 11:48:15;;;;;;;4.20;3.70;;;;;;;19.23;52.45;100836.65;130527;1267;108860;-72
2022/05/08 11:51:21;;;;;;;5.60;4.30;;;;;;;19.49;51.83;100828.76;130452;1267;108898;-73
2022/05/08 11:54:29;;;;;;;6.30;3.60;;;;;;;19.63;52.14;100826.10;130469;1267;108793;-72
2022/05/08 11:57:43;;;;;;;7.70;4.10;;;;;;;19.89;51.78;100824.45;130438;1265;107642;-73
2022/05/08 12:00:49;;;;;;;7.00;3.90;;;;;;;20.03;51.48;100824.56;130402;1267;107162;-74
2022/05/08 12:03:55;;;;;;;5.30;3.70;;;;;;;20.24;51.43;100816.25;130377;1267;108706;-73
2022/05/08 12:07:03;;;;;;;10.90;6.30;;;;;;;20.45;50.63;100811.83;130425;1267;106934;-73
2022/05/08 12:10:10;;;;;;;5.60;4.40;;;;;;;20.74;50.98;100814.34;130302;1266;109050;-72
2022/05/08 12:13:16;;;;;;;7.20;4.30;;;;;;;20.95;49.98;100813.18;130406;1267;109197;-74
2022/05/08 12:16:21;;;;;;;6.30;5.70;;;;;;;20.94;50.01;100812.77;130342;1267;108606;-74
2022/05/08 12:19:27;;;;;;;6.80;5.60;;;;;;;20.76;49.84;100813.45;130346;1267;108833;-74
2022/05/08 12:22:33;;;;;;;6.40;5.20;;;;;;;20.66;50.43;100801.52;130404;1267;108829;-71
2022/05/08 12:25:41;;;;;;;8.90;6.00;;;;;;;20.66;49.96;100799.77;130385;1267;108803;-72
2022/05/08 12:28:47;;;;;;;7.60;6.60;;;;;;;20.67;50.50;100801.69;130466;1267;108772;-74
2022/05/08 12:31:53;;;;;;;7.20;6.00;;;;;;;20.64;50.59;100797.77;130414;1267;108682;-72
2022/05/08 12:34:58;;;;;;;5.90;5.30;;;;;;;20.72;50.68;100791.73;130380;1267;109019;-73
2022/05/08 12:38:04;;;;;;;4.30;3.80;;;;;;;20.88;49.76;100793.11;130472;1266;108788;-73
2022/05/08 12:41:12;;;;;;;5.10;4.10;;;;;;;20.90;49.26;100795.83;130545;1266;108739;-72
2022/05/08 12:44:17;;;;;;;3.70;3.20;;;;;;;20.84;48.59;100792.02;130500;1266;108634;-72
2022/05/08 12:47:23;;;;;;;5.40;4.20;;;;;;;20.81;48.66;100789.73;130543;1267;107166;-72
2022/05/08 12:50:28;;;;;;;4.50;3.60;;;;;;;20.85;48.20;100793.91;130425;1267;108897;-72
2022/05/08 12:53:35;;;;;;;3.70;3.30;;;;;;;20.84;49.06;100784.85;130353;1267;108699;-72
2022/05/08 12:56:41;;;;;;;3.90;3.10;;;;;;;21.07;49.19;100783.52;130389;1267;108772;-74
2022/05/08 12:59:47;;;;;;;5.30;3.10;;;;;;;21.23;47.68;100782.04;130394;1267;108941;-72
2022/05/08 13:02:53;;;;;;;5.40;4.70;;;;;;;21.11;47.00;100780.92;130466;1267;108707;-72
2022/05/08 13:05:58;;;;;;;8.70;6.10;;;;;;;20.96;47.80;100781.34;130326;1267;108926;-74
2022/05/08 13:09:06;;;;;;;6.00;4.10;;;;;;;21.13;48.37;100771.42;130455;1267;108591;-74
2022/05/08 13:12:12;;;;;;;3.80;3.00;;;;;;;21.27;47.30;100775.01;130467;1267;108745;-74
2022/05/08 13:15:18;;;;;;;7.40;4.10;;;;;;;21.29;47.49;100772.09;130542;1267;108768;-74
2022/05/08 13:18:24;;;;;;;4.50;3.60;;;;;;;21.30;46.52;100774.23;130455;1267;108759;-74
2022/05/08 13:21:30;;;;;;;4.00;3.20;;;;;;;21.33;47.91;100756.59;130472;1267;108944;-74
2022/05/08 13:24:36;;;;;;;4.50;3.40;;;;;;;21.52;47.08;100767.02;130443;1267;108933;-74
2022/05/08 13:27:43;;;;;;;3.40;3.10;;;;;;;21.58;46.88;100759.74;130414;1267;108671;-73
2022/05/08 13:30:48;;;;;;;5.40;3.10;;;;;;;21.52;46.06;100762.91;130395;1267;108589;-73
2022/05/08 13:33:54;;;;;;;4.00;2.60;;;;;;;21.35;45.37;100767.87;130443;1267;108519;-73
2022/05/08 13:37:00;;;;;;;4.40;3.00;;;;;;;21.25;45.10;100767.45;130449;1267;108747;-75
2022/05/08 13:40:08;;;;;;;3.80;2.20;;;;;;;21.36;45.78;100770.49;130392;1267;108839;-74
2022/05/08 13:43:13;;;;;;;6.20;1.80;;;;;;;21.33;44.30;100773.39;130404;1267;108796;-73
2022/05/08 13:46:18;;;;;;;2.90;2.20;;;;;;;21.10;43.94;100768.14;130373;1267;108117;-73
2022/05/08 13:49:24;;;;;;;5.00;3.40;;;;;;;21.09;45.13;100764.23;130521;1267;108667;-72
2022/05/08 13:52:30;;;;;;;3.80;2.30;;;;;;;21.21;44.69;100771.77;130549;1267;108692;-74
2022/05/08 13:55:38;;;;;;;7.30;5.00;;;;;;;21.08;44.30;100773.48;130477;1267;108772;-73
2022/05/08 13:58:43;;;;;;;5.30;3.20;;;;;;;20.97;44.13;100778.69;130484;1267;108905;-73
2022/05/08 14:01:49;;;;;;;5.10;2.80;;;;;;;20.83;44.50;100778.13;130419;1267;108947;-72
2022/05/08 14:04:54;;;;;;;6.00;4.00;;;;;;;20.78;44.50;100779.30;130455;1267;108788;-74
2022/05/08 14:08:00;;;;;;;3.40;2.50;;;;;;;20.63;44.09;100781.09;130386;1267;108697;-73
2022/05/08 14:11:06;;;;;;;4.70;3.10;;;;;;;20.56;44.23;100781.81;130379;1267;108985;-73
2022/05/08 14:14:11;;;;;;;3.90;3.10;;;;;;;20.56;44.48;100785.44;130519;1268;108968;-74
2022/05/08 14:17:18;;;;;;;2.90;2.10;;;;;;;20.44;44.41;100789.67;130505;1268;108837;-74
2022/05/08 14:20:26;;;;;;;2.90;2.20;;;;;;;20.31;44.75;100795.11;130507;1266;109225;-74
2022/05/08 14:23:32;;;;;;;5.40;3.20;;;;;;;20.20;44.79;100795.28;130330;1266;108725;-72
2022/05/08 14:26:38;;;;;;;3.60;2.80;;;;;;;20.11;44.60;100801.73;130390;1267;108676;-72
2022/05/08 14:29:44;;;;;;;2.60;1.90;;;;;;;20.02;45.02;100807.80;130360;1267;108755;-72
2022/05/08 14:36:13;;;;;;;4.60;2.20;;;;;;;20.07;44.61;100813.33;130420;1267;108747;-72
2022/05/08 14:39:19;;;;;;;2.30;1.80;;;;;;;19.93;44.76;100810.02;130427;1267;108707;-73